Estación Meteorológica Peña el Pijo (Robertgarden) [ 02/03/23 04:41:27 CET ]

Fecha Hora Presion(HPa) Temp (°C) Humedad % Rocio (°C) Viento ( m/s) Direccion Lluvia 1Hora(mm) Lluvia 24H(mm) LLuvia Total(mm)
2010-May-31 01:01:19 1018.900 13.0 73 8.3         114.99
2010-May-31 02:01:12 1018.400 13.2 73 8.4         114.99
2010-May-31 03:03:18 1017.900 12.4 74 7.9         114.99
2010-May-31 04:01:13 1017.700 11.3 77 7.4         114.99
2010-May-31 05:01:13 1017.500 11.6 78 7.9         114.99
2010-May-31 06:01:12 1017.600 10.9 79 7.4         114.99
2010-May-31 07:01:17 1017.500 10.4 82 7.4         114.99
2010-May-31 08:01:14 1017.700 12.8 81 9.6         114.99
2010-May-31 09:01:16 1017.400 18.3 64 11.3         114.99
2010-May-31 10:01:16 1017.100 24.9 47 12.8         114.99
2010-May-31 11:01:14 1016.800 28.0 36 11.4         114.99
2010-May-31 12:01:18 1016.800 29.4 32 10.9         114.99
2010-May-31 13:01:12 1016.200 30.1 29 10.1         114.99
2010-May-31 14:01:11 1015.800 31.9 26 9.8         114.99
2010-May-31 15:01:11 1015.700 31.8 25 9.1         114.99
2010-May-31 16:01:10 1015.200 32.1 24 8.8 0.8 NE     114.99
2010-May-31 17:01:13 1014.700 32.9 21 7.6         114.99
2010-May-31 18:01:18 1014.300 32.0 24 8.7         114.99
2010-May-31 19:01:16 1014.000 32.2 22 7.7 1.4 SE     114.99
2010-May-31 20:01:14 1014.000 30.3 25 7.8         114.99
2010-May-31 21:01:12 1014.300 23.8 36 7.7         114.99
2010-May-31 22:01:13 1014.700 19.9 46 7.9         114.99
2010-May-31 23:01:17 1015.600 17.2 61 9.6         114.99

Temperatura Máxima:32°    Temperatura Mínima:10°
Presión Máxima:1018.900 Hpa    Presión Mínima:1014.000 Hpa


Volver